Time;durP1;ratioP1;P1;durP2;ratioP2;P2;SDS_P1;SDS_P2;PMS_P1;PMS_P2;Temp;Humidity;BMP_temperature;BMP_pressure;BME280_temperature;BME280_humidity;BME280_pressure;Samples;Min_cycle;Max_cycle;Signal;HPM_P1;HPM_P2
2022/03/16 00:49:14;;;;;;;38.72;25.50;;;5.30;99.90;;;;;;6406745;22;20055;-91
2022/03/16 00:51:40;;;;;;;42.37;28.47;;;5.20;99.90;;;;;;6354854;22;20021;-93
2022/03/16 00:54:06;;;;;;;45.57;28.30;;;5.10;99.90;;;;;;6354092;22;20017;-96
2022/03/16 01:10:18;;;;;;;56.60;33.03;;;4.90;99.90;;;;;;6345936;22;20018;-90
2022/03/16 01:12:56;;;;;;;;;;;;;;;;;;;;;
2022/03/16 01:18:33;;;;;;;45.83;30.13;;;4.90;99.90;;;;;;6347868;22;20022;-90
2022/03/16 02:06:10;;;;;;;39.95;24.55;;;4.50;99.90;;;;;;6389674;22;20025;-93
2022/03/16 02:08:41;;;;;;;37.05;24.15;;;4.50;99.90;;;;;;6339591;22;20018;-87
2022/03/16 02:11:08;;;;;;;41.50;25.17;;;4.50;99.90;;;;;;6333455;22;20042;-95
2022/03/16 02:13:36;;;;;;;41.78;26.33;;;4.50;99.90;;;;;;6354157;22;20379;-90
2022/03/16 02:16:05;;;;;;;43.35;27.67;;;4.50;99.90;;;;;;6328433;22;20443;-92
2022/03/16 02:18:49;;;;;;;43.50;26.38;;;4.50;99.90;;;;;;6359050;22;20022;-90
2022/03/16 02:21:17;;;;;;;41.55;26.08;;;4.60;99.90;;;;;;6330760;22;20045;-92
2022/03/16 02:23:43;;;;;;;38.85;25.02;;;4.60;99.90;;;;;;6331458;22;20025;-89
2022/03/16 02:26:12;;;;;;;47.03;27.37;;;4.60;99.90;;;;;;6354437;22;20018;-92
2022/03/16 02:28:38;;;;;;;44.55;26.52;;;4.60;99.90;;;;;;6326583;22;20381;-94
2022/03/16 02:31:14;;;;;;;33.00;21.07;;;4.60;99.90;;;;;;6362840;22;20026;-85
2022/03/16 02:33:40;;;;;;;32.37;19.60;;;4.60;99.90;;;;;;6339518;22;20002;-85
2022/03/16 02:36:07;;;;;;;30.20;20.10;;;4.60;99.90;;;;;;6338747;22;20066;-86
2022/03/16 02:39:05;;;;;;;30.40;20.90;;;4.50;99.90;;;;;;6365344;22;20055;-85
2022/03/16 02:44:06;;;;;;;36.45;23.85;;;4.50;99.90;;;;;;6389187;22;20029;-87
2022/03/16 02:46:34;;;;;;;41.80;26.42;;;4.40;99.90;;;;;;6364275;22;20066;-85
2022/03/16 02:49:00;;;;;;;43.97;26.52;;;4.40;99.90;;;;;;6364752;22;20015;-85
2022/03/16 02:51:31;;;;;;;44.58;27.65;;;4.50;99.90;;;;;;6366410;22;20458;-85
2022/03/16 02:54:04;;;;;;;45.67;26.77;;;4.50;99.90;;;;;;6365255;22;20022;-85
2022/03/16 02:56:30;;;;;;;45.20;27.50;;;4.50;99.90;;;;;;6330879;22;20018;-88
2022/03/16 02:59:04;;;;;;;46.83;27.58;;;4.50;99.90;;;;;;6329247;22;20022;-86
2022/03/16 03:01:37;;;;;;;53.20;29.30;;;4.50;99.90;;;;;;6330988;22;20009;-86
2022/03/16 03:06:39;;;;;;;44.97;27.58;;;4.50;99.90;;;;;;6393844;22;20077;-86
2022/03/16 03:09:09;;;;;;;47.20;29.90;;;4.50;99.90;;;;;;6394909;22;20022;-89
2022/03/16 03:11:34;;;;;;;54.25;30.60;;;4.50;99.90;;;;;;6392922;22;20442;-92
2022/03/16 03:14:00;;;;;;;55.03;31.40;;;4.40;99.90;;;;;;6388623;22;20093;-87
2022/03/16 03:19:03;;;;;;;52.40;29.95;;;4.40;99.90;;;;;;6404549;22;20028;-86
2022/03/16 03:21:32;;;;;;;49.47;29.52;;;4.40;99.90;;;;;;6363871;22;20022;-86
2022/03/16 03:23:58;;;;;;;52.50;29.23;;;4.30;99.90;;;;;;6362325;22;20067;-86
2022/03/16 03:26:28;;;;;;;42.13;26.53;;;4.30;99.90;;;;;;6362931;22;20018;-86
2022/03/16 03:29:05;;;;;;;43.55;26.77;;;4.30;99.90;;;;;;6394326;22;20025;-86
2022/03/16 03:31:36;;;;;;;48.67;28.38;;;4.20;99.90;;;;;;6367897;22;20075;-86
2022/03/16 03:34:05;;;;;;;42.00;25.83;;;4.10;99.90;;;;;;6369711;22;20013;-86
2022/03/16 03:36:34;;;;;;;41.37;25.17;;;4.10;99.90;;;;;;6368738;22;20022;-87
2022/03/16 03:41:36;;;;;;;36.10;22.33;;;4.00;99.90;;;;;;6420642;22;20018;-86
2022/03/16 03:44:03;;;;;;;33.28;22.75;;;4.00;99.90;;;;;;6368110;22;20080;-85
2022/03/16 03:46:43;;;;;;;43.75;26.38;;;3.90;99.90;;;;;;6362960;22;20022;-86
2022/03/16 03:49:09;;;;;;;44.55;26.38;;;3.80;99.90;;;;;;6394844;22;20049;-86
2022/03/16 03:51:38;;;;;;;41.88;25.75;;;3.80;99.90;;;;;;6395205;22;20065;-86
2022/03/16 03:54:07;;;;;;;43.87;28.07;;;3.80;99.90;;;;;;6367635;22;20055;-86
2022/03/16 03:56:35;;;;;;;43.80;27.70;;;3.80;99.90;;;;;;6368547;22;20025;-86
2022/03/16 04:01:45;;;;;;;46.22;28.40;;;3.80;99.90;;;;;;6356855;22;20029;-87
2022/03/16 04:04:12;;;;;;;45.58;28.33;;;3.70;99.90;;;;;;6355757;22;20097;-86
2022/03/16 04:06:38;;;;;;;43.53;27.10;;;3.80;99.90;;;;;;6329529;22;20015;-86
2022/03/16 04:09:07;;;;;;;45.28;25.13;;;3.80;99.90;;;;;;6304718;22;20071;-86
2022/03/16 04:14:12;;;;;;;74.43;26.33;;;3.60;99.90;;;;;;6412369;22;20438;-86
2022/03/16 04:16:40;;;;;;;42.15;26.08;;;3.60;99.90;;;;;;6393176;22;20466;-87
2022/03/16 04:19:14;;;;;;;53.07;27.03;;;3.50;99.90;;;;;;6363481;22;20025;-86
2022/03/16 04:21:43;;;;;;;47.20;27.23;;;3.50;99.90;;;;;;6362453;22;20124;-87
2022/03/16 04:24:09;;;;;;;46.05;26.38;;;3.40;99.90;;;;;;6333530;22;20018;-87
2022/03/16 04:26:38;;;;;;;48.05;28.13;;;3.40;99.90;;;;;;6359279;22;20018;-86
2022/03/16 04:31:52;;;;;;;49.10;30.27;;;3.20;99.90;;;;;;6388614;22;20026;-86
2022/03/16 04:34:46;;;;;;;57.85;31.58;;;3.30;99.90;;;;;;6362409;22;20018;-86
2022/03/16 04:42:50;;;;;;;49.35;28.17;;;3.30;99.90;;;;;;6387708;22;20026;-86
2022/03/16 04:45:22;;;;;;;42.95;27.90;;;3.40;99.90;;;;;;6308101;22;20037;-86
2022/03/16 04:48:11;;;;;;;48.97;28.00;;;3.40;99.90;;;;;;6343175;22;20018;-85
2022/03/16 04:50:38;;;;;;;44.95;26.52;;;3.40;99.90;;;;;;6329452;22;20081;-86
2022/03/16 04:53:09;;;;;;;44.85;27.52;;;3.40;99.90;;;;;;6304834;22;20660;-85
2022/03/16 04:55:36;;;;;;;44.65;28.27;;;3.30;99.90;;;;;;6324504;22;20018;-85
2022/03/16 04:58:06;;;;;;;51.72;31.17;;;3.40;99.90;;;;;;6335871;22;20100;-85
2022/03/16 05:00:41;;;;;;;53.70;28.75;;;3.40;99.90;;;;;;6386401;22;20022;-85
2022/03/16 05:03:08;;;;;;;49.03;28.95;;;3.40;99.90;;;;;;6356525;22;20048;-85
2022/03/16 05:05:36;;;;;;;44.90;28.23;;;3.40;99.90;;;;;;6331499;22;20022;-86
2022/03/16 05:08:05;;;;;;;48.08;26.98;;;3.30;99.90;;;;;;6361097;22;20022;-85
2022/03/16 05:13:07;;;;;;;44.17;26.85;;;3.30;99.90;;;;;;6389587;22;20018;-89
2022/03/16 05:15:37;;;;;;;43.70;27.15;;;3.30;99.90;;;;;;6361187;22;20018;-86
2022/03/16 05:18:03;;;;;;;44.40;26.00;;;3.30;99.90;;;;;;6335474;22;20025;-86
2022/03/16 05:20:44;;;;;;;40.13;24.17;;;3.40;99.90;;;;;;6339550;22;20019;-86
2022/03/16 05:23:14;;;;;;;40.15;23.60;;;3.40;99.90;;;;;;6336360;22;20033;-86
2022/03/16 05:28:25;;;;;;;36.72;23.98;;;3.30;99.90;;;;;;6419621;22;20022;-85
2022/03/16 05:30:57;;;;;;;42.47;25.45;;;3.20;99.90;;;;;;6369306;22;20065;-85
2022/03/16 05:33:23;;;;;;;42.38;25.73;;;3.20;99.90;;;;;;6368745;22;20454;-85
2022/03/16 05:35:56;;;;;;;42.88;26.02;;;3.30;99.90;;;;;;6366146;22;20047;-88
2022/03/16 05:38:35;;;;;;;40.42;25.17;;;3.30;99.90;;;;;;6390051;22;20061;-86
2022/03/16 05:41:32;;;;;;;42.03;25.55;;;3.30;99.90;;;;;;6366097;22;20093;-86
2022/03/16 05:44:20;;;;;;;44.40;25.55;;;3.30;99.90;;;;;;6360891;22;20017;-87
2022/03/16 05:47:08;;;;;;;46.30;27.08;;;3.40;99.90;;;;;;6301129;22;20075;-86
2022/03/16 05:49:34;;;;;;;49.17;27.15;;;3.40;99.90;;;;;;6280633;22;20027;-88
2022/03/16 05:51:59;;;;;;;44.15;26.30;;;3.40;99.90;;;;;;6281667;22;20023;-90
2022/03/16 05:54:25;;;;;;;42.00;27.07;;;3.40;99.90;;;;;;6258852;22;20139;-88
2022/03/16 05:57:06;;;;;;;43.77;26.87;;;3.40;99.90;;;;;;6291070;22;20022;-87
2022/03/16 05:59:32;;;;;;;46.50;27.50;;;3.40;99.90;;;;;;6285733;22;20530;-91
2022/03/16 06:01:57;;;;;;;47.08;28.38;;;3.40;99.90;;;;;;6279911;22;20055;-90
2022/03/16 06:04:23;;;;;;;46.90;28.03;;;3.50;99.90;;;;;;6280744;22;20019;-92
2022/03/16 06:06:49;;;;;;;45.00;27.55;;;3.50;99.90;;;;;;6279984;22;20023;-92
2022/03/16 06:09:15;;;;;;;51.10;29.53;;;3.50;99.90;;;;;;6280121;22;20061;-93
2022/03/16 06:11:41;;;;;;;45.50;27.40;;;3.50;99.90;;;;;;6307157;22;20380;-92
2022/03/16 06:14:06;;;;;;;52.33;28.60;;;3.50;99.90;;;;;;6289104;22;20019;-95
2022/03/16 06:16:32;;;;;;;48.77;28.87;;;3.50;99.90;;;;;;6285229;22;20094;-96
2022/03/16 06:18:58;;;;;;;44.27;27.63;;;3.60;99.90;;;;;;6350915;22;20028;-96
2022/03/16 06:21:24;;;;;;;51.22;28.73;;;3.50;99.90;;;;;;6351721;22;20084;-88
2022/03/16 06:23:50;;;;;;;47.78;28.63;;;3.50;99.90;;;;;;6349176;22;20022;-93
2022/03/16 06:26:15;;;;;;;52.93;30.33;;;3.40;99.90;;;;;;6348664;22;20028;-93
2022/03/16 06:28:41;;;;;;;51.00;29.07;;;3.40;99.90;;;;;;6348559;22;20316;-92
2022/03/16 06:31:07;;;;;;;58.07;32.17;;;3.40;99.90;;;;;;6348780;22;20091;-92
2022/03/16 06:33:53;;;;;;;55.67;32.30;;;3.40;99.90;;;;;;6348595;22;20043;-93
2022/03/16 06:36:19;;;;;;;59.28;31.77;;;3.40;99.90;;;;;;6348267;22;20022;-92
2022/03/16 06:38:44;;;;;;;73.75;36.67;;;3.40;99.90;;;;;;6348760;22;20025;-92
2022/03/16 06:41:10;;;;;;;69.57;36.53;;;3.50;99.90;;;;;;6348325;22;20028;-89
2022/03/16 06:43:36;;;;;;;69.30;36.92;;;3.50;99.90;;;;;;6348552;22;20092;-88
2022/03/16 06:46:02;;;;;;;65.30;36.57;;;3.70;99.90;;;;;;6348695;22;20014;-90
2022/03/16 06:48:28;;;;;;;62.20;34.00;;;3.70;99.90;;;;;;6348763;22;20118;-95
2022/03/16 06:51:25;;;;;;;62.58;33.67;;;3.80;99.90;;;;;;6349538;22;20036;-91
2022/03/16 06:54:14;;;;;;;57.13;31.40;;;3.80;99.90;;;;;;6351003;22;20339;-93
2022/03/16 06:56:40;;;;;;;57.97;32.03;;;4.00;99.90;;;;;;6351139;22;20029;-96
2022/03/16 06:59:28;;;;;;;57.63;32.25;;;4.00;99.90;;;;;;6353471;22;20312;-96
2022/03/16 07:01:54;;;;;;;54.03;32.40;;;4.00;99.90;;;;;;6355054;22;20160;-87
2022/03/16 07:04:38;;;;;;;53.20;32.43;;;4.10;99.90;;;;;;6376612;22;20073;-91
2022/03/16 07:07:04;;;;;;;57.05;32.95;;;4.10;99.90;;;;;;6347947;22;20106;-91
2022/03/16 07:09:32;;;;;;;59.03;33.15;;;4.20;99.90;;;;;;6348287;22;20100;-90
2022/03/16 07:11:58;;;;;;;59.20;34.25;;;4.30;99.90;;;;;;6350014;22;20059;-94
2022/03/16 07:14:30;;;;;;;59.30;34.13;;;4.30;99.90;;;;;;6349847;22;20022;-91
2022/03/16 07:16:57;;;;;;;62.22;34.80;;;4.40;99.90;;;;;;6352028;22;20335;-95
2022/03/16 07:19:22;;;;;;;60.38;34.42;;;4.50;99.90;;;;;;6348393;22;20022;-94
2022/03/16 07:21:48;;;;;;;55.97;34.23;;;4.50;99.90;;;;;;6349674;22;20018;-90
2022/03/16 07:24:14;;;;;;;63.13;35.40;;;4.50;99.90;;;;;;6350770;22;20074;-96
2022/03/16 07:26:40;;;;;;;55.38;32.97;;;4.60;99.90;;;;;;6349731;22;20051;-92
2022/03/16 07:29:06;;;;;;;58.80;33.93;;;4.60;99.90;;;;;;6349566;22;20029;-93
2022/03/16 07:31:32;;;;;;;67.65;36.22;;;4.60;99.90;;;;;;6349958;22;20018;-94
2022/03/16 07:33:58;;;;;;;64.18;36.58;;;4.70;99.90;;;;;;6349967;22;20048;-92
2022/03/16 07:36:46;;;;;;;65.37;36.73;;;4.70;99.90;;;;;;6377950;22;20009;-89
2022/03/16 07:39:11;;;;;;;71.88;37.53;;;4.70;99.90;;;;;;6349773;22;20526;-88
2022/03/16 07:41:37;;;;;;;75.90;39.43;;;4.80;99.90;;;;;;6349758;22;20053;-89
2022/03/16 07:44:05;;;;;;;75.68;40.90;;;4.90;99.90;;;;;;6349703;22;20048;-89
2022/03/16 07:46:31;;;;;;;72.40;40.92;;;5.10;99.90;;;;;;6349432;22;20465;-93
2022/03/16 07:48:56;;;;;;;74.33;40.00;;;5.20;99.90;;;;;;6349971;22;20022;-89
2022/03/16 07:51:22;;;;;;;75.87;41.23;;;5.50;99.90;;;;;;6352275;22;20013;-96
2022/03/16 07:53:48;;;;;;;76.67;41.60;;;5.60;99.90;;;;;;6355702;22;21644;-90
2022/03/16 07:56:13;;;;;;;77.10;42.30;;;5.70;99.90;;;;;;6351131;22;20018;-90
2022/03/16 07:58:41;;;;;;;71.00;40.13;;;5.70;99.90;;;;;;6353876;22;20025;-92
2022/03/16 08:01:06;;;;;;;81.28;40.63;;;5.80;99.90;;;;;;6350864;22;20071;-93
2022/03/16 08:03:32;;;;;;;73.53;41.73;;;5.80;99.90;;;;;;6350200;22;20509;-94
2022/03/16 08:05:58;;;;;;;80.03;41.87;;;5.80;99.90;;;;;;6350298;22;20020;-92
2022/03/16 08:08:24;;;;;;;76.60;42.33;;;5.90;99.90;;;;;;6349779;22;20086;-91
2022/03/16 08:10:50;;;;;;;75.78;41.80;;;5.90;99.90;;;;;;6350426;22;20021;-89
2022/03/16 08:13:15;;;;;;;73.30;42.17;;;6.00;99.90;;;;;;6349344;22;20100;-92
2022/03/16 08:15:42;;;;;;;77.60;44.13;;;6.10;99.90;;;;;;6375825;22;20339;-93
2022/03/16 08:18:08;;;;;;;80.03;42.63;;;6.20;99.90;;;;;;6376048;22;20017;-91
2022/03/16 08:20:33;;;;;;;73.60;42.90;;;6.30;99.90;;;;;;6349465;22;20053;-90
2022/03/16 08:22:59;;;;;;;76.57;42.27;;;6.40;99.90;;;;;;6349598;22;20025;-93
2022/03/16 08:25:25;;;;;;;71.83;43.10;;;6.50;99.90;;;;;;6351563;22;20021;-89
2022/03/16 08:27:52;;;;;;;68.13;41.70;;;6.60;99.90;;;;;;6351557;22;20018;-90
2022/03/16 08:30:19;;;;;;;70.45;41.50;;;6.70;99.90;;;;;;6356009;22;20451;-93
2022/03/16 08:32:44;;;;;;;69.47;42.93;;;6.80;99.90;;;;;;6350932;22;20018;-92
2022/03/16 08:35:20;;;;;;;70.53;41.90;;;6.90;99.90;;;;;;6352127;22;20014;-93
2022/03/16 08:37:46;;;;;;;66.43;39.20;;;7.00;99.90;;;;;;6355044;22;20059;-89
2022/03/16 08:40:15;;;;;;;70.03;41.53;;;7.20;99.90;;;;;;6379638;22;20101;-90
2022/03/16 08:42:40;;;;;;;61.63;38.08;;;7.20;99.90;;;;;;6351943;22;20458;-90
2022/03/16 08:45:07;;;;;;;58.13;36.23;;;7.40;99.90;;;;;;6354797;22;20013;-90
2022/03/16 08:47:32;;;;;;;65.47;39.58;;;7.40;99.90;;;;;;6353981;22;20014;-92
2022/03/16 08:50:01;;;;;;;55.37;36.53;;;7.50;99.90;;;;;;6355735;22;20057;-91
2022/03/16 08:52:27;;;;;;;60.65;37.70;;;7.60;99.90;;;;;;6349851;22;20086;-89
2022/03/16 08:54:56;;;;;;;56.67;35.78;;;7.70;99.90;;;;;;6354273;22;20451;-90
2022/03/16 08:57:25;;;;;;;57.72;34.95;;;7.80;99.90;;;;;;6353499;22;20492;-93
2022/03/16 08:59:53;;;;;;;51.63;34.73;;;7.90;99.90;;;;;;6357106;22;20049;-91
2022/03/16 09:02:18;;;;;;;57.58;36.00;;;7.90;99.90;;;;;;6382267;22;20010;-96
2022/03/16 09:07:20;;;;;;;53.95;34.83;;;8.00;99.90;;;;;;6408488;22;20022;-95
2022/03/16 09:09:45;;;;;;;51.57;33.00;;;8.00;99.90;;;;;;6355353;22;20101;-96
2022/03/16 09:12:11;;;;;;;49.53;33.57;;;8.10;99.90;;;;;;6350144;22;20248;-93
2022/03/16 09:14:38;;;;;;;43.80;29.23;;;8.10;99.90;;;;;;6352979;22;20024;-94
2022/03/16 09:17:06;;;;;;;;;;;8.20;99.90;;;;;;6381415;22;20388;-94
2022/03/16 09:19:33;;;;;;;49.28;31.98;;;8.20;99.90;;;;;;6354645;22;19985;-90
2022/03/16 09:22:00;;;;;;;48.00;29.98;;;8.30;99.90;;;;;;6356929;22;20026;-95
2022/03/16 09:24:29;;;;;;;48.25;32.15;;;8.40;99.90;;;;;;6386257;22;20017;-96
2022/03/16 09:26:58;;;;;;;43.67;30.83;;;8.60;99.90;;;;;;6358692;22;20074;-89
2022/03/16 09:29:33;;;;;;;45.58;30.95;;;8.70;99.90;;;;;;6388473;22;20450;-89
2022/03/16 09:32:00;;;;;;;43.30;30.50;;;8.80;99.90;;;;;;6358082;22;20022;-95
2022/03/16 09:34:25;;;;;;;41.90;28.73;;;9.00;99.90;;;;;;6352637;22;20021;-96
2022/03/16 09:36:51;;;;;;;37.70;27.90;;;9.10;99.90;;;;;;6350289;22;20036;-93
2022/03/16 09:39:17;;;;;;;42.50;28.23;;;9.20;99.90;;;;;;6353132;22;20457;-95
2022/03/16 09:41:49;;;;;;;44.27;29.67;;;9.30;99.90;;;;;;6350385;22;20021;-96
2022/03/16 09:44:15;;;;;;;43.60;30.17;;;9.40;99.90;;;;;;6349570;22;20106;-92
2022/03/16 09:46:44;;;;;;;45.72;29.77;;;9.50;99.90;;;;;;6351950;22;20017;-96
2022/03/16 09:49:14;;;;;;;43.05;29.80;;;9.60;99.90;;;;;;6349806;22;20044;-95
2022/03/16 09:51:44;;;;;;;44.47;28.48;;;9.60;99.90;;;;;;6379005;22;20014;-94
2022/03/16 09:54:17;;;;;;;42.47;29.30;;;9.70;99.90;;;;;;6352673;22;20022;-93
2022/03/16 09:56:44;;;;;;;45.55;30.08;;;9.70;99.90;;;;;;6357890;22;20400;-93
2022/03/16 09:59:10;;;;;;;45.80;30.30;;;9.80;99.90;;;;;;6358112;22;20028;-90
2022/03/16 10:01:36;;;;;;;42.60;28.02;;;9.90;99.90;;;;;;6354320;22;20032;-95
2022/03/16 10:04:06;;;;;;;36.47;24.98;;;10.10;99.90;;;;;;6351750;22;20018;-93
2022/03/16 10:06:35;;;;;;;33.70;22.85;;;10.20;99.90;;;;;;6351766;22;20013;-94
2022/03/16 10:15:16;;;;;;;32.53;20.45;;;10.70;99.90;;;;;;6383625;22;20454;-95
2022/03/16 10:17:46;;;;;;;28.90;19.33;;;10.80;99.90;;;;;;6353610;22;20045;-96
2022/03/16 10:20:21;;;;;;;30.52;20.20;;;10.90;99.90;;;;;;6380453;22;20416;-91
2022/03/16 10:22:59;;;;;;;28.70;19.63;;;11.10;99.90;;;;;;6384714;22;20021;-94
2022/03/16 10:25:28;;;;;;;29.00;19.88;;;11.20;99.90;;;;;;6356693;22;20018;-91
2022/03/16 10:28:11;;;;;;;25.75;17.70;;;11.40;99.90;;;;;;6382758;22;20018;-90
2022/03/16 10:30:49;;;;;;;24.45;16.20;;;11.40;99.90;;;;;;6382353;22;20014;-95
2022/03/16 10:33:16;;;;;;;24.90;16.45;;;11.50;99.90;;;;;;6357554;22;20018;-94
2022/03/16 10:35:55;;;;;;;;;;;11.60;99.90;;;;;;6353803;22;20018;-96
2022/03/16 10:38:21;;;;;;;;;;;11.60;99.90;;;;;;6354475;22;19918;-96
2022/03/16 10:40:49;;;;;;;20.30;14.10;;;11.70;99.90;;;;;;6356357;22;20262;-96
2022/03/16 10:49:12;;;;;;;21.45;14.50;;;11.90;99.90;;;;;;6377738;22;20029;-96
2022/03/16 10:51:38;;;;;;;22.48;14.25;;;11.90;99.90;;;;;;6382828;22;20017;-96
2022/03/16 12:44:45;;;;;;;16.23;11.90;;;13.80;97.60;;;;;;6376891;22;20018;-96
2022/03/16 12:47:25;;;;;;;20.80;12.00;;;13.80;97.40;;;;;;6345089;22;20006;-91
2022/03/16 12:55:12;;;;;;;17.95;10.65;;;13.90;97.20;;;;;;6368915;22;20447;-96
2022/03/16 12:57:38;;;;;;;14.15;9.60;;;13.90;96.00;;;;;;6345819;22;20025;-91
2022/03/16 13:00:17;;;;;;;18.65;11.70;;;13.90;94.70;;;;;;6321347;22;20443;-91
2022/03/16 13:23:33;;;;;;;15.80;10.18;;;14.10;93.60;;;;;;6292467;22;20010;-90
2022/03/16 13:26:11;;;;;;;16.77;10.77;;;14.10;92.80;;;;;;6267074;22;20078;-96
2022/03/16 13:28:42;;;;;;;16.83;10.52;;;14.00;92.40;;;;;;6239149;22;20055;-95
2022/03/16 13:31:11;;;;;;;19.23;10.35;;;14.10;91.90;;;;;;6242057;22;20020;-96
2022/03/16 14:00:16;;;;;;;16.02;10.40;;;13.50;92.70;;;;;;6417768;22;20094;-96
2022/03/16 14:02:44;;;;;;;15.73;10.13;;;13.40;92.70;;;;;;6349940;22;20060;-92
2022/03/16 14:23:45;;;;;;;16.65;11.68;;;13.50;93.40;;;;;;6356162;22;20047;-96
2022/03/16 14:26:11;;;;;;;19.48;12.52;;;13.40;93.90;;;;;;6305213;22;20033;-91
2022/03/16 14:28:46;;;;;;;18.98;13.02;;;13.30;93.90;;;;;;6331946;22;20034;-94
2022/03/16 14:46:44;;;;;;;21.52;15.27;;;13.10;95.50;;;;;;6367443;22;20027;-95
2022/03/16 14:49:10;;;;;;;23.58;15.85;;;13.00;95.70;;;;;;6353004;22;20018;-95
2022/03/16 14:51:36;;;;;;;24.60;16.43;;;12.90;96.20;;;;;;6351803;22;20029;-94
2022/03/16 14:54:03;;;;;;;24.67;16.95;;;12.90;96.40;;;;;;6329879;22;20015;-93
2022/03/16 14:56:28;;;;;;;24.48;15.75;;;12.90;96.60;;;;;;6333715;22;20018;-95
2022/03/16 14:58:54;;;;;;;25.83;16.77;;;12.80;96.60;;;;;;6358690;22;20644;-90
2022/03/16 15:01:20;;;;;;;25.40;16.70;;;12.80;96.40;;;;;;6350945;22;20048;-87
2022/03/16 15:03:46;;;;;;;25.45;16.90;;;12.80;96.50;;;;;;6344848;22;20106;-96
2022/03/16 15:06:12;;;;;;;25.27;16.40;;;12.80;96.50;;;;;;6350363;22;20049;-91
2022/03/16 15:08:41;;;;;;;24.25;16.50;;;12.70;97.00;;;;;;6353418;22;20018;-96
2022/03/16 15:29:19;;;;;;;24.40;16.33;;;12.60;97.70;;;;;;6375747;22;20022;-95
2022/03/16 15:31:46;;;;;;;23.92;15.95;;;12.70;97.60;;;;;;6323930;22;20022;-96
2022/03/16 15:58:51;;;;;;;26.17;16.27;;;12.50;97.70;;;;;;6409838;22;20026;-93
2022/03/16 16:27:16;;;;;;;25.67;16.70;;;12.10;99.90;;;;;;6365447;22;20026;-90
2022/03/16 16:29:44;;;;;;;23.17;16.97;;;12.00;99.90;;;;;;6344700;22;20014;-92
2022/03/16 16:39:58;;;;;;;22.30;16.38;;;11.90;99.90;;;;;;6380622;22;20025;-95
2022/03/16 16:45:14;;;;;;;25.42;16.38;;;11.80;99.90;;;;;;6383232;22;20018;-94
2022/03/16 16:47:40;;;;;;;24.23;16.42;;;11.80;99.90;;;;;;6334067;22;20097;-95
2022/03/16 16:50:14;;;;;;;22.73;16.10;;;11.80;99.90;;;;;;6352015;22;20019;-96
2022/03/16 16:52:40;;;;;;;25.23;17.23;;;11.70;99.90;;;;;;6318439;22;20019;-91
2022/03/16 16:55:09;;;;;;;;;;;11.70;99.90;;;;;;6321169;22;20018;-96
2022/03/16 16:57:35;;;;;;;23.45;16.15;;;11.70;99.90;;;;;;6327970;22;19949;-95
2022/03/16 17:00:01;;;;;;;;;;;11.70;99.90;;;;;;6348245;22;20011;-95
2022/03/16 17:02:31;;;;;;;24.75;16.40;;;11.60;99.90;;;;;;6347750;22;19914;-96
2022/03/16 17:04:59;;;;;;;23.20;16.23;;;11.60;99.90;;;;;;6349925;22;20014;-96
2022/03/16 17:07:25;;;;;;;24.88;16.95;;;11.60;99.90;;;;;;6322913;22;20025;-95
2022/03/16 17:09:51;;;;;;;25.30;16.00;;;11.50;99.90;;;;;;6349045;22;20347;-93
2022/03/16 17:12:20;;;;;;;25.13;15.95;;;11.60;99.90;;;;;;6325970;22;20018;-91
2022/03/16 17:14:49;;;;;;;24.13;15.35;;;11.50;99.90;;;;;;6327529;22;20018;-94
2022/03/16 17:17:20;;;;;;;24.10;16.02;;;11.50;99.90;;;;;;6351860;22;20463;-94
2022/03/16 17:19:49;;;;;;;23.50;15.95;;;11.40;99.90;;;;;;6355687;22;20400;-94
2022/03/16 17:22:15;;;;;;;24.27;16.48;;;11.40;99.90;;;;;;6321015;22;20018;-95
2022/03/16 17:24:44;;;;;;;23.00;15.27;;;11.40;99.90;;;;;;6323586;22;20006;-93
2022/03/16 17:32:21;;;;;;;23.20;15.32;;;11.30;99.90;;;;;;6373126;22;20028;-96
2022/03/16 17:40:25;;;;;;;24.13;15.48;;;11.20;99.90;;;;;;6354504;22;20019;-95
2022/03/16 17:45:38;;;;;;;22.23;15.00;;;11.10;99.90;;;;;;6322756;22;20079;-86
2022/03/16 17:48:12;;;;;;;20.75;13.70;;;11.00;99.90;;;;;;6316367;22;20028;-92
2022/03/16 17:50:53;;;;;;;22.23;13.77;;;11.00;99.90;;;;;;6295766;22;20046;-96
2022/03/16 17:53:22;;;;;;;20.50;14.38;;;11.00;99.90;;;;;;6298715;22;20026;-95
2022/03/16 17:58:23;;;;;;;20.75;13.90;;;11.00;99.90;;;;;;6339234;22;20019;-88
2022/03/16 18:00:50;;;;;;;22.00;14.70;;;10.90;99.90;;;;;;6298616;22;20023;-89
2022/03/16 18:03:17;;;;;;;20.80;13.50;;;10.90;99.90;;;;;;6286231;22;20470;-89
2022/03/16 18:05:44;;;;;;;;;;;10.90;99.90;;;;;;6311929;22;20021;-85
2022/03/16 18:08:10;;;;;;;19.23;12.40;;;10.90;99.90;;;;;;6311094;22;20347;-86
2022/03/16 18:13:25;;;;;;;18.02;11.98;;;10.80;99.90;;;;;;6311139;22;19914;-86
2022/03/16 18:15:59;;;;;;;19.92;13.30;;;10.80;99.90;;;;;;6298969;22;20103;-87
2022/03/16 18:18:27;;;;;;;19.33;11.85;;;10.80;99.90;;;;;;6285429;22;20053;-85
2022/03/16 18:20:55;;;;;;;19.55;11.88;;;10.80;99.90;;;;;;6325567;22;20052;-87
2022/03/16 18:23:22;;;;;;;19.40;11.75;;;10.80;99.90;;;;;;6338949;22;20010;-85
2022/03/16 18:25:49;;;;;;;18.55;11.55;;;10.80;99.90;;;;;;6344519;22;20027;-94
2022/03/16 18:28:16;;;;;;;;;;;10.80;99.90;;;;;;6307858;22;20011;-87
2022/03/16 18:30:43;;;;;;;19.33;11.60;;;10.70;99.90;;;;;;6318040;22;19919;-87
2022/03/16 18:33:08;;;;;;;19.67;12.25;;;10.70;99.90;;;;;;6286954;22;20015;-88
2022/03/16 18:35:35;;;;;;;18.37;12.80;;;10.60;99.90;;;;;;6317962;22;20030;-86
2022/03/16 18:38:04;;;;;;;19.33;13.20;;;10.50;99.90;;;;;;6264288;22;20249;-95
2022/03/16 18:40:30;;;;;;;19.10;12.55;;;10.50;99.90;;;;;;6287912;22;20029;-87
2022/03/16 18:43:01;;;;;;;22.23;13.43;;;10.30;99.90;;;;;;6288530;22;20026;-86
2022/03/16 18:45:27;;;;;;;19.45;12.52;;;10.30;99.90;;;;;;6287923;22;20023;-84
2022/03/16 18:47:55;;;;;;;19.38;13.23;;;10.20;99.90;;;;;;6315583;22;20507;-85
2022/03/16 18:50:23;;;;;;;22.27;12.85;;;10.10;99.90;;;;;;6341743;22;20579;-87
2022/03/16 18:52:56;;;;;;;20.23;11.48;;;10.10;99.90;;;;;;6288007;22;20027;-88
2022/03/16 18:55:31;;;;;;;21.30;12.65;;;10.10;99.90;;;;;;6312882;22;20408;-86
2022/03/16 18:58:05;;;;;;;18.10;11.95;;;10.10;99.90;;;;;;6287147;22;20447;-88
2022/03/16 19:00:32;;;;;;;18.42;11.40;;;10.20;99.90;;;;;;6287046;22;20452;-86
2022/03/16 19:02:59;;;;;;;19.42;12.27;;;10.10;99.90;;;;;;6312661;22;20026;-84
2022/03/16 19:05:25;;;;;;;21.75;11.77;;;10.20;99.90;;;;;;6287954;22;20098;-87
2022/03/16 19:07:51;;;;;;;22.20;13.10;;;10.30;99.90;;;;;;6287507;22;20428;-87
2022/03/16 19:10:17;;;;;;;20.63;12.48;;;10.30;99.90;;;;;;6287504;22;20032;-96
2022/03/16 19:15:32;;;;;;;20.13;12.60;;;10.40;99.90;;;;;;6292746;22;20517;-90
2022/03/16 19:18:01;;;;;;;21.20;12.57;;;10.40;99.90;;;;;;6317260;22;20509;-89
2022/03/16 19:20:27;;;;;;;19.60;12.27;;;10.40;99.90;;;;;;6337716;22;20023;-96
2022/03/16 19:22:54;;;;;;;30.90;13.07;;;10.40;99.90;;;;;;6288298;22;20290;-93
2022/03/16 19:25:21;;;;;;;21.70;12.90;;;10.50;99.90;;;;;;6337699;22;20068;-94
2022/03/16 19:27:49;;;;;;;22.38;12.95;;;10.50;99.90;;;;;;6320251;22;20023;-95
2022/03/16 19:30:16;;;;;;;20.95;12.60;;;10.60;99.90;;;;;;6315450;22;20023;-90
2022/03/16 19:32:43;;;;;;;20.73;13.13;;;10.60;99.90;;;;;;6340940;22;20038;-92
2022/03/16 19:35:09;;;;;;;22.27;13.13;;;10.60;99.90;;;;;;6331692;22;20022;-91
2022/03/16 19:37:37;;;;;;;24.58;14.10;;;10.60;99.90;;;;;;6312898;22;20044;-88
2022/03/16 19:40:04;;;;;;;21.38;14.18;;;10.60;99.90;;;;;;6341462;22;20092;-93
2022/03/16 19:42:31;;;;;;;19.40;13.00;;;10.60;99.90;;;;;;6287695;22;20021;-92
2022/03/16 19:44:57;;;;;;;19.90;13.00;;;10.60;99.90;;;;;;6328720;22;20061;-87
2022/03/16 19:47:24;;;;;;;21.33;13.90;;;10.60;99.90;;;;;;6312915;22;20019;-92
2022/03/16 19:49:49;;;;;;;21.92;13.57;;;10.60;99.90;;;;;;6314051;22;20019;-92
2022/03/16 19:52:16;;;;;;;22.93;13.60;;;10.60;99.90;;;;;;6290270;22;20021;-96
2022/03/16 19:54:42;;;;;;;;;;;10.60;99.90;;;;;;6316166;22;20018;-95
2022/03/16 19:57:09;;;;;;;20.33;13.30;;;10.60;99.90;;;;;;6305225;22;19990;-93
2022/03/16 19:59:41;;;;;;;24.77;14.32;;;10.60;99.90;;;;;;6317826;22;20106;-90
2022/03/16 20:02:11;;;;;;;21.63;13.95;;;10.60;99.90;;;;;;6316128;22;20043;-90
2022/03/16 20:04:38;;;;;;;21.73;13.48;;;10.60;99.90;;;;;;6292449;22;20444;-90
2022/03/16 20:07:05;;;;;;;26.55;15.20;;;10.60;99.90;;;;;;6304275;22;20463;-91
2022/03/16 20:09:32;;;;;;;22.98;14.27;;;10.60;99.90;;;;;;6293079;22;20463;-94
2022/03/16 20:11:59;;;;;;;24.65;14.50;;;10.60;99.90;;;;;;6307673;22;20092;-88
2022/03/16 20:14:25;;;;;;;26.45;14.95;;;10.60;99.90;;;;;;6292676;22;20026;-87
2022/03/16 20:16:55;;;;;;;23.55;14.05;;;10.60;99.90;;;;;;6292080;22;20072;-93